Time;durP1;ratioP1;P1;durP2;ratioP2;P2;SDS_P1;SDS_P2;PMS_P1;PMS_P2;Temp;Humidity;BMP_temperature;BMP_pressure;BME280_temperature;BME280_humidity;BME280_pressure;Samples;Min_cycle;Max_cycle;Signal;HPM_P1;HPM_P2
2021/05/13 00:01:41;;;;;;;15.38;4.95;;;14.20;58.40;;;;;;5066387;28;20028;-62
2021/05/13 00:04:07;;;;;;;21.13;5.20;;;14.20;57.90;;;;;;5069768;28;20052;-62
2021/05/13 00:06:32;;;;;;;19.35;5.78;;;14.20;58.50;;;;;;5060959;28;20434;-62
2021/05/13 00:09:01;;;;;;;12.05;5.18;;;14.10;58.00;;;;;;5060875;28;20075;-62
2021/05/13 00:11:32;;;;;;;25.67;6.95;;;14.10;58.00;;;;;;5070955;28;20051;-62
2021/05/13 00:14:02;;;;;;;23.63;8.30;;;14.00;58.00;;;;;;5066423;28;20036;-61
2021/05/13 00:16:30;;;;;;;18.55;7.57;;;14.00;58.10;;;;;;5062163;28;20036;-62
2021/05/13 00:19:04;;;;;;;17.00;9.18;;;13.90;58.10;;;;;;5068365;28;20699;-61
2021/05/13 00:21:32;;;;;;;18.38;6.40;;;13.90;58.30;;;;;;5073291;28;20085;-62
2021/05/13 00:23:57;;;;;;;16.88;6.07;;;13.80;58.20;;;;;;5069924;28;20485;-63
2021/05/13 00:26:39;;;;;;;13.65;7.13;;;13.80;58.30;;;;;;5052815;28;20032;-63
2021/05/13 00:29:13;;;;;;;17.13;8.43;;;13.80;58.50;;;;;;5059796;28;20036;-62
2021/05/13 00:31:42;;;;;;;17.75;7.03;;;13.70;58.40;;;;;;5069291;28;20043;-62
2021/05/13 00:34:08;;;;;;;19.20;6.25;;;13.70;58.60;;;;;;5067481;28;20067;-62
2021/05/13 00:36:37;;;;;;;22.08;6.00;;;13.60;58.70;;;;;;5069648;28;20493;-62
2021/05/13 00:39:04;;;;;;;10.63;4.65;;;13.60;58.80;;;;;;5051423;28;20337;-64
2021/05/13 00:41:33;;;;;;;14.98;5.85;;;13.60;58.80;;;;;;5063317;28;20042;-63
2021/05/13 00:43:58;;;;;;;20.77;5.93;;;13.50;58.80;;;;;;5067631;28;20115;-64
2021/05/13 00:46:25;;;;;;;13.93;6.38;;;13.50;58.90;;;;;;5062015;28;20042;-63
2021/05/13 00:49:01;;;;;;;21.25;7.25;;;13.50;58.90;;;;;;5059002;28;21024;-63
2021/05/13 00:51:27;;;;;;;19.65;7.07;;;13.50;59.60;;;;;;5069202;28;20115;-64
2021/05/13 00:53:56;;;;;;;19.98;7.05;;;13.50;59.00;;;;;;5068602;28;20066;-63
2021/05/13 00:56:27;;;;;;;14.38;7.60;;;13.50;59.20;;;;;;5068755;28;20437;-63
2021/05/13 00:59:03;;;;;;;17.83;7.80;;;13.50;59.30;;;;;;5058444;28;20039;-65
2021/05/13 01:01:48;;;;;;;19.50;6.90;;;13.50;59.30;;;;;;5068008;28;20501;-64
2021/05/13 01:04:16;;;;;;;19.20;7.43;;;13.50;59.30;;;;;;5072317;28;20406;-64
2021/05/13 01:06:41;;;;;;;22.10;7.53;;;13.50;59.30;;;;;;5069483;28;20143;-62
2021/05/13 01:09:10;;;;;;;17.70;7.72;;;13.40;59.20;;;;;;5064396;28;20522;-62
2021/05/13 01:11:38;;;;;;;19.33;6.60;;;13.40;59.30;;;;;;5067235;28;20036;-63
2021/05/13 01:14:28;;;;;;;21.20;6.95;;;13.40;59.30;;;;;;5067713;28;20063;-63
2021/05/13 01:19:33;;;;;;;11.40;5.57;;;13.30;59.30;;;;;;5059600;28;20391;-64
2021/05/13 01:22:01;;;;;;;14.43;6.30;;;13.30;59.50;;;;;;5062683;28;20051;-63
2021/05/13 01:24:27;;;;;;;21.40;6.80;;;13.30;59.50;;;;;;5064929;28;20209;-63
2021/05/13 01:26:53;;;;;;;17.55;6.13;;;13.30;59.50;;;;;;5064704;28;20611;-64
2021/05/13 01:29:21;;;;;;;21.13;7.20;;;13.20;59.50;;;;;;5049316;28;20041;-64
2021/05/13 01:31:48;;;;;;;16.10;6.40;;;13.20;59.60;;;;;;5069904;28;20068;-63
2021/05/13 01:34:14;;;;;;;19.75;6.78;;;13.20;59.60;;;;;;5067154;28;20032;-63
2021/05/13 01:36:40;;;;;;;15.38;6.88;;;13.20;59.60;;;;;;5063013;28;20131;-64
2021/05/13 01:39:10;;;;;;;21.35;7.35;;;13.10;59.60;;;;;;5062388;28;20043;-64
2021/05/13 01:41:38;;;;;;;21.50;7.70;;;13.10;59.70;;;;;;5056124;28;20174;-62
2021/05/13 01:44:04;;;;;;;20.05;7.53;;;13.10;59.70;;;;;;5053041;28;20024;-62
2021/05/13 01:46:30;;;;;;;12.73;7.22;;;13.10;59.80;;;;;;5066378;28;20040;-63
2021/05/13 01:48:58;;;;;;;15.80;6.22;;;13.10;59.80;;;;;;5041458;28;20406;-63
2021/05/13 01:51:24;;;;;;;14.38;5.70;;;13.00;59.80;;;;;;5063716;28;20055;-63
2021/05/13 01:53:50;;;;;;;12.93;6.05;;;13.00;59.80;;;;;;5066371;28;20036;-63
2021/05/13 01:56:20;;;;;;;19.77;6.55;;;13.00;59.90;;;;;;5062482;28;20159;-63
2021/05/13 01:58:45;;;;;;;22.85;7.47;;;13.00;60.00;;;;;;5065721;28;20155;-63
2021/05/13 02:01:14;;;;;;;19.48;7.70;;;12.90;60.00;;;;;;5066777;28;20046;-63
2021/05/13 02:03:40;;;;;;;18.23;7.60;;;12.90;60.00;;;;;;5062524;28;20578;-63
2021/05/13 02:06:05;;;;;;;25.80;8.95;;;12.90;60.10;;;;;;5070534;28;20024;-62
2021/05/13 02:08:36;;;;;;;20.27;8.18;;;12.90;60.20;;;;;;5066634;28;20040;-62
2021/05/13 02:11:02;;;;;;;20.65;8.32;;;12.90;60.20;;;;;;5063010;28;20031;-63
2021/05/13 02:13:28;;;;;;;23.08;8.05;;;13.00;60.30;;;;;;5069178;28;20465;-63
2021/05/13 02:15:56;;;;;;;23.58;8.25;;;13.00;60.40;;;;;;5056296;28;20412;-63
2021/05/13 02:18:22;;;;;;;19.05;8.18;;;13.00;60.50;;;;;;5061690;28;20513;-62
2021/05/13 02:20:49;;;;;;;17.98;8.10;;;13.10;60.60;;;;;;5066874;28;20031;-63
2021/05/13 02:23:15;;;;;;;18.05;7.63;;;13.10;60.70;;;;;;5064607;28;20043;-63
2021/05/13 02:25:44;;;;;;;19.40;7.97;;;13.10;60.70;;;;;;5070431;28;20032;-63
2021/05/13 02:28:09;;;;;;;24.17;8.00;;;13.20;60.80;;;;;;5063296;28;20059;-64
2021/05/13 02:30:35;;;;;;;19.00;7.75;;;13.10;60.70;;;;;;5066708;28;20446;-62
2021/05/13 02:33:00;;;;;;;20.83;8.60;;;13.10;60.70;;;;;;5066110;28;20066;-63
2021/05/13 02:35:26;;;;;;;19.42;8.40;;;13.20;60.70;;;;;;5070990;28;20446;-61
2021/05/13 02:37:54;;;;;;;22.73;9.70;;;13.20;60.80;;;;;;5062940;28;20043;-61
2021/05/13 02:40:20;;;;;;;27.38;9.00;;;13.20;61.00;;;;;;5056983;28;20060;-62
2021/05/13 02:42:46;;;;;;;23.17;9.98;;;13.30;61.00;;;;;;5073666;28;20361;-62
2021/05/13 02:45:12;;;;;;;22.60;8.70;;;13.30;61.00;;;;;;5069464;28;20040;-63
2021/05/13 02:47:38;;;;;;;22.20;8.55;;;13.30;61.00;;;;;;5069712;28;20340;-64
2021/05/13 02:50:08;;;;;;;15.93;6.93;;;13.30;61.00;;;;;;5058045;28;20054;-63
2021/05/13 02:52:33;;;;;;;21.45;7.57;;;13.30;60.90;;;;;;5063332;28;20806;-62
2021/05/13 02:54:59;;;;;;;21.30;8.77;;;13.30;60.90;;;;;;5057677;28;20032;-63
2021/05/13 02:57:24;;;;;;;24.58;9.73;;;13.40;61.00;;;;;;5065141;28;20050;-62
2021/05/13 03:00:00;;;;;;;17.70;8.23;;;13.40;61.00;;;;;;5062908;28;20124;-62
2021/05/13 03:02:26;;;;;;;17.40;8.50;;;13.40;61.80;;;;;;5060197;28;20103;-63
2021/05/13 03:04:54;;;;;;;21.52;8.85;;;13.40;61.10;;;;;;5060089;28;20044;-61
2021/05/13 03:07:19;;;;;;;24.35;8.93;;;13.40;61.10;;;;;;5036675;28;20109;-63
2021/05/13 03:09:50;;;;;;;18.05;8.25;;;13.40;61.10;;;;;;5034514;28;20490;-62
2021/05/13 03:12:16;;;;;;;21.83;8.80;;;13.40;61.10;;;;;;5042012;28;20423;-62
2021/05/13 03:14:43;;;;;;;22.80;9.43;;;13.40;61.10;;;;;;5052803;28;20078;-62
2021/05/13 03:17:11;;;;;;;18.77;8.98;;;13.40;61.10;;;;;;5071609;28;20561;-62
2021/05/13 03:19:43;;;;;;;28.80;9.10;;;13.50;61.30;;;;;;5055303;28;20048;-63
2021/05/13 03:22:13;;;;;;;17.98;8.27;;;13.50;61.30;;;;;;5043075;28;20525;-63
2021/05/13 03:24:51;;;;;;;21.45;8.75;;;13.50;61.30;;;;;;5045960;28;20044;-62
2021/05/13 03:29:55;;;;;;;18.63;9.13;;;13.50;61.20;;;;;;5051653;28;20047;-63
2021/05/13 03:32:22;;;;;;;26.17;10.05;;;13.60;61.20;;;;;;5039895;28;20547;-62
2021/05/13 03:34:48;;;;;;;24.30;10.45;;;13.50;61.20;;;;;;5054839;28;20169;-62
2021/05/13 03:37:13;;;;;;;28.67;10.68;;;13.60;61.20;;;;;;5049202;28;20040;-63
2021/05/13 03:39:39;;;;;;;26.70;12.20;;;13.60;61.30;;;;;;5039480;28;20072;-63
2021/05/13 03:42:06;;;;;;;32.22;11.57;;;13.70;61.30;;;;;;5049133;28;20501;-62
2021/05/13 03:44:34;;;;;;;27.63;11.10;;;13.70;61.40;;;;;;5062007;28;20111;-62
2021/05/13 03:46:59;;;;;;;29.13;10.95;;;13.70;61.40;;;;;;5069433;28;20944;-63
2021/05/13 03:49:25;;;;;;;25.55;10.48;;;13.70;61.40;;;;;;5068340;28;20052;-63
2021/05/13 03:51:51;;;;;;;26.10;10.55;;;13.70;61.40;;;;;;5075464;28;20497;-62
2021/05/13 03:54:17;;;;;;;27.40;10.10;;;13.80;61.40;;;;;;5054615;28;20074;-61
2021/05/13 03:56:42;;;;;;;25.17;10.63;;;13.80;61.40;;;;;;5075992;28;20409;-63
2021/05/13 03:59:15;;;;;;;22.55;10.60;;;13.80;61.30;;;;;;5068148;28;20036;-63
2021/05/13 04:04:10;;;;;;;24.08;11.05;;;13.90;61.30;;;;;;5072058;28;20066;-62
2021/05/13 04:06:36;;;;;;;22.60;10.10;;;13.80;61.30;;;;;;5065866;28;20040;-62
2021/05/13 04:09:08;;;;;;;22.58;10.60;;;13.90;61.30;;;;;;5065393;28;20088;-62
2021/05/13 04:11:40;;;;;;;24.10;11.15;;;13.90;61.40;;;;;;5054587;28;20047;-63
2021/05/13 04:14:09;;;;;;;31.52;12.07;;;13.90;61.40;;;;;;5068003;28;20513;-63
2021/05/13 04:16:38;;;;;;;28.08;12.80;;;14.00;61.50;;;;;;5075410;28;20044;-62
2021/05/13 04:19:04;;;;;;;33.15;12.77;;;14.00;61.60;;;;;;5069898;28;20198;-62
2021/05/13 04:21:29;;;;;;;29.33;12.68;;;14.10;61.60;;;;;;5071426;28;20040;-62
2021/05/13 04:23:55;;;;;;;26.75;13.05;;;14.10;61.50;;;;;;5070232;28;20097;-63
2021/05/13 04:26:21;;;;;;;30.98;15.10;;;14.20;61.40;;;;;;5079686;28;20058;-62
2021/05/13 04:28:49;;;;;;;30.55;14.60;;;14.30;61.40;;;;;;5074095;28;20054;-62
2021/05/13 04:31:14;;;;;;;30.80;15.95;;;14.30;61.30;;;;;;5074968;28;20024;-63
2021/05/13 04:33:40;;;;;;;36.40;17.15;;;14.40;61.20;;;;;;5074755;28;20046;-62
2021/05/13 04:36:08;;;;;;;35.22;17.10;;;14.50;61.10;;;;;;5075083;28;20043;-63
2021/05/13 04:38:34;;;;;;;37.38;17.15;;;14.50;61.00;;;;;;5074192;28;20083;-62
2021/05/13 04:41:02;;;;;;;34.83;19.13;;;14.60;61.60;;;;;;5073124;28;20569;-62
2021/05/13 04:43:35;;;;;;;43.13;19.42;;;14.60;60.70;;;;;;5076852;28;20537;-63
2021/05/13 04:46:01;;;;;;;47.13;19.58;;;14.60;60.70;;;;;;5072733;28;20059;-63
2021/05/13 04:48:28;;;;;;;43.25;19.02;;;14.70;60.70;;;;;;5069087;28;20071;-62
2021/05/13 04:50:54;;;;;;;37.95;19.00;;;14.70;60.60;;;;;;5066431;28;20485;-62
2021/05/13 04:53:20;;;;;;;47.85;20.98;;;14.70;60.50;;;;;;5069554;28;20032;-63
2021/05/13 04:55:46;;;;;;;53.50;21.77;;;14.80;60.40;;;;;;5070363;28;20032;-62
2021/05/13 04:58:12;;;;;;;49.78;20.75;;;14.80;60.40;;;;;;5071504;28;20071;-62
2021/05/13 05:00:37;;;;;;;50.78;22.40;;;14.90;60.50;;;;;;5071303;28;20035;-62
2021/05/13 05:03:06;;;;;;;45.25;23.25;;;14.90;61.20;;;;;;5056586;28;20040;-63
2021/05/13 05:05:32;;;;;;;52.17;23.30;;;14.90;60.40;;;;;;5074845;28;20066;-62
2021/05/13 05:08:02;;;;;;;51.28;24.27;;;15.00;60.40;;;;;;5075690;28;20135;-62
2021/05/13 05:10:30;;;;;;;52.70;25.35;;;15.10;60.50;;;;;;5065432;28;20052;-62
2021/05/13 05:12:55;;;;;;;50.60;25.45;;;15.10;60.50;;;;;;5072801;28;21315;-62
2021/05/13 05:15:21;;;;;;;58.83;25.90;;;15.20;60.40;;;;;;5077343;28;20036;-63
2021/05/13 05:17:47;;;;;;;61.78;25.38;;;15.30;60.40;;;;;;5072595;28;20040;-63
2021/05/13 05:20:13;;;;;;;58.42;25.73;;;15.40;60.20;;;;;;5073726;28;20127;-64
2021/05/13 05:22:38;;;;;;;57.40;26.17;;;15.40;60.20;;;;;;5069649;28;20051;-62
2021/05/13 05:25:04;;;;;;;57.20;26.05;;;15.50;60.20;;;;;;5058160;28;22394;-63
2021/05/13 05:27:30;;;;;;;50.13;25.20;;;15.50;60.00;;;;;;5065461;28;20054;-62
2021/05/13 05:29:55;;;;;;;54.72;25.17;;;15.60;60.00;;;;;;5055142;28;20028;-62
2021/05/13 05:32:21;;;;;;;43.58;23.25;;;15.70;60.10;;;;;;5071752;28;20044;-63
2021/05/13 05:34:49;;;;;;;44.67;23.75;;;15.80;60.00;;;;;;5075319;28;20521;-61
2021/05/13 05:37:14;;;;;;;48.60;22.77;;;15.90;59.70;;;;;;5070960;28;20047;-63
2021/05/13 05:39:40;;;;;;;48.70;23.65;;;16.00;59.60;;;;;;5059344;28;20040;-63
2021/05/13 05:42:05;;;;;;;44.17;22.77;;;16.10;59.40;;;;;;5055119;28;20040;-62
2021/05/13 05:44:31;;;;;;;46.08;22.23;;;16.20;59.20;;;;;;5060767;28;20074;-63
2021/05/13 05:46:59;;;;;;;53.00;22.10;;;16.30;59.00;;;;;;5057637;28;20033;-63
2021/05/13 05:49:25;;;;;;;43.53;22.92;;;16.30;58.80;;;;;;5069241;28;20098;-62
2021/05/13 05:51:50;;;;;;;50.40;22.55;;;16.40;58.60;;;;;;5072257;28;20434;-63
2021/05/13 05:54:18;;;;;;;49.83;22.25;;;16.40;58.40;;;;;;5076366;28;20032;-62
2021/05/13 05:56:46;;;;;;;51.00;23.23;;;16.40;58.30;;;;;;5075649;28;20059;-62
2021/05/13 05:59:12;;;;;;;44.47;22.55;;;16.40;58.20;;;;;;5071960;28;20043;-62
2021/05/13 06:01:38;;;;;;;46.65;23.80;;;16.50;58.20;;;;;;5071841;28;20606;-63
2021/05/13 06:04:09;;;;;;;46.53;22.90;;;16.50;58.20;;;;;;5069459;28;20032;-63
2021/05/13 06:06:36;;;;;;;44.33;23.60;;;16.60;58.10;;;;;;5078274;28;20028;-63
2021/05/13 06:09:03;;;;;;;52.17;23.58;;;16.70;57.90;;;;;;5070773;28;20367;-63
2021/05/13 06:11:28;;;;;;;46.33;22.00;;;16.70;57.80;;;;;;5075559;28;20054;-63
2021/05/13 06:13:54;;;;;;;45.95;23.25;;;16.80;57.80;;;;;;5072925;28;20107;-63
2021/05/13 06:16:19;;;;;;;47.42;21.48;;;17.00;57.90;;;;;;5070516;28;20032;-62
2021/05/13 06:18:59;;;;;;;39.03;19.92;;;17.30;57.80;;;;;;5072684;28;20067;-63
2021/05/13 06:21:28;;;;;;;40.90;19.00;;;17.60;57.00;;;;;;5077241;28;20510;-63
2021/05/13 06:23:57;;;;;;;39.95;20.02;;;18.00;56.30;;;;;;5076396;28;20103;-62
2021/05/13 06:26:35;;;;;;;35.35;18.50;;;18.20;55.90;;;;;;5078835;28;20028;-63
2021/05/13 06:29:07;;;;;;;35.63;16.58;;;18.70;56.00;;;;;;5065692;28;20020;-63
2021/05/13 06:31:36;;;;;;;28.17;14.02;;;19.60;54.90;;;;;;5058617;28;20129;-62
2021/05/13 06:34:03;;;;;;;26.42;12.55;;;20.10;53.40;;;;;;5072307;28;20517;-63
2021/05/13 06:36:30;;;;;;;33.88;12.98;;;20.30;52.20;;;;;;5072996;28;20040;-63
2021/05/13 06:38:56;;;;;;;27.45;11.45;;;20.30;51.40;;;;;;5070522;28;20177;-63
2021/05/13 06:41:21;;;;;;;19.67;11.15;;;20.30;50.40;;;;;;5071345;28;20119;-62
2021/05/13 06:43:47;;;;;;;22.98;11.40;;;20.30;50.70;;;;;;5067535;28;20059;-62
2021/05/13 06:46:13;;;;;;;25.42;11.80;;;20.30;50.50;;;;;;5066656;28;20556;-62
2021/05/13 06:48:39;;;;;;;34.20;13.60;;;20.30;50.40;;;;;;5073160;28;20071;-63
2021/05/13 06:51:07;;;;;;;29.27;13.05;;;20.30;50.20;;;;;;5060114;28;20040;-63
2021/05/13 06:53:35;;;;;;;25.35;12.35;;;20.30;50.00;;;;;;5071032;28;20120;-63
2021/05/13 06:56:03;;;;;;;34.00;13.60;;;20.20;49.80;;;;;;5070897;28;20028;-62
2021/05/13 06:58:28;;;;;;;26.50;13.30;;;20.20;49.80;;;;;;5073538;28;20039;-63
2021/05/13 07:00:54;;;;;;;22.73;9.88;;;20.20;49.70;;;;;;5066186;28;20033;-63
2021/05/13 07:03:22;;;;;;;18.40;9.50;;;20.20;49.30;;;;;;5072229;28;20097;-63
2021/05/13 07:05:48;;;;;;;16.33;8.85;;;20.20;49.10;;;;;;5075338;28;20504;-63
2021/05/13 07:08:15;;;;;;;21.92;9.93;;;20.20;48.80;;;;;;5070949;28;20044;-62
2021/05/13 07:10:43;;;;;;;21.10;11.07;;;20.30;48.70;;;;;;5077136;28;20078;-63
2021/05/13 07:13:11;;;;;;;22.88;10.48;;;20.40;48.30;;;;;;5074489;28;20044;-62
2021/05/13 07:15:39;;;;;;;22.23;10.73;;;20.40;48.20;;;;;;5067702;28;20077;-63
2021/05/13 07:18:05;;;;;;;24.33;12.05;;;20.50;47.80;;;;;;5067005;28;20043;-63
2021/05/13 07:20:32;;;;;;;25.20;11.93;;;20.40;47.80;;;;;;5077390;28;20036;-63
2021/05/13 07:22:58;;;;;;;22.55;11.40;;;20.40;48.00;;;;;;5072844;28;20748;-63
2021/05/13 07:25:26;;;;;;;23.58;10.25;;;20.40;48.00;;;;;;5076496;28;20044;-64
2021/05/13 07:27:54;;;;;;;19.00;9.88;;;;;;;;;;5076279;28;20141;-63
2021/05/13 07:30:24;;;;;;;23.70;10.68;;;20.50;48.20;;;;;;5074024;28;20511;-63
2021/05/13 07:32:49;;;;;;;23.20;11.80;;;20.60;47.80;;;;;;5075253;28;20059;-62
2021/05/13 07:35:17;;;;;;;22.52;11.05;;;20.60;47.60;;;;;;5082039;28;20509;-63
2021/05/13 07:37:43;;;;;;;19.05;10.40;;;20.60;47.60;;;;;;5061961;28;20036;-63
2021/05/13 07:40:14;;;;;;;25.30;12.10;;;20.60;47.40;;;;;;5076186;28;20086;-63
2021/05/13 07:42:40;;;;;;;20.27;11.38;;;20.50;47.50;;;;;;5076914;28;20047;-62
2021/05/13 07:45:07;;;;;;;20.00;10.80;;;20.40;47.50;;;;;;5076868;28;20424;-63
2021/05/13 07:47:39;;;;;;;28.33;11.68;;;20.30;47.70;;;;;;5068094;28;20052;-62
2021/05/13 07:50:09;;;;;;;21.30;11.50;;;20.30;48.00;;;;;;5080656;28;20047;-62
2021/05/13 07:52:38;;;;;;;24.67;11.38;;;20.40;48.30;;;;;;5082116;28;20111;-63
2021/05/13 07:55:05;;;;;;;23.20;10.63;;;20.40;47.80;;;;;;5075220;28;20042;-63
2021/05/13 07:57:33;;;;;;;14.85;7.93;;;20.40;47.60;;;;;;5075195;28;20912;-62
2021/05/13 08:00:04;;;;;;;14.77;8.23;;;20.40;47.00;;;;;;5067341;28;20043;-62
2021/05/13 08:02:29;;;;;;;17.85;8.15;;;20.30;46.70;;;;;;5072226;28;20068;-62
2021/05/13 08:04:57;;;;;;;23.00;9.15;;;20.30;46.90;;;;;;5073518;28;20029;-62
2021/05/13 08:07:25;;;;;;;18.00;8.05;;;20.40;46.70;;;;;;5069566;28;20055;-62
2021/05/13 08:09:51;;;;;;;16.92;8.07;;;20.40;46.40;;;;;;5076722;28;20059;-62
2021/05/13 08:12:19;;;;;;;15.82;8.15;;;20.40;46.60;;;;;;5064452;28;20033;-63
2021/05/13 08:14:45;;;;;;;24.45;9.00;;;20.50;46.70;;;;;;5057357;28;20506;-63
2021/05/13 08:17:12;;;;;;;21.02;9.93;;;20.70;46.70;;;;;;5063802;28;20048;-62
2021/05/13 08:19:40;;;;;;;17.73;9.38;;;20.90;46.60;;;;;;5067727;28;20063;-63
2021/05/13 08:22:08;;;;;;;18.33;9.27;;;21.00;46.40;;;;;;5058992;28;20044;-63
2021/05/13 08:24:36;;;;;;;17.88;9.48;;;21.30;46.30;;;;;;5058890;28;20028;-63
2021/05/13 08:27:02;;;;;;;21.25;9.48;;;21.60;45.80;;;;;;5061963;28;20033;-62
2021/05/13 08:29:29;;;;;;;19.50;8.63;;;21.90;45.50;;;;;;5069023;28;20168;-64
2021/05/13 08:31:55;;;;;;;15.07;8.43;;;22.30;44.80;;;;;;5077246;28;20578;-64
2021/05/13 08:34:23;;;;;;;20.38;8.57;;;22.80;44.10;;;;;;5076663;28;20072;-65
2021/05/13 08:36:49;;;;;;;13.48;8.20;;;;;;;;;;5070568;28;20036;-63
2021/05/13 08:39:15;;;;;;;15.25;8.30;;;23.20;43.10;;;;;;5070139;28;20043;-64
2021/05/13 08:41:41;;;;;;;13.60;8.00;;;24.00;41.80;;;;;;5055714;28;20036;-62
2021/05/13 08:44:10;;;;;;;17.80;9.15;;;24.50;41.00;;;;;;5067429;28;20093;-63
2021/05/13 08:46:37;;;;;;;14.95;8.07;;;25.10;40.00;;;;;;5071598;28;20030;-62
2021/05/13 08:49:03;;;;;;;15.93;8.57;;;;;;;;;;5066001;28;20089;-62
2021/05/13 08:51:30;;;;;;;13.18;7.15;;;;;;;;;;5067880;28;20054;-63
2021/05/13 08:53:57;;;;;;;19.13;8.65;;;;;;;;;;5069515;28;20093;-64
2021/05/13 08:56:24;;;;;;;17.88;7.32;;;;;;;;;;5068380;28;20028;-63
2021/05/13 08:58:50;;;;;;;14.70;7.03;;;;;;;;;;5064582;28;20036;-63
2021/05/13 09:01:24;;;;;;;13.13;6.22;;;;;;;;;;5070467;28;20043;-64
2021/05/13 09:03:51;;;;;;;11.38;6.07;;;;;;;;;;5063224;28;20040;-64
2021/05/13 09:06:32;;;;;;;11.35;5.80;;;;;;;;;;5068761;28;20028;-64
2021/05/13 09:09:13;;;;;;;7.22;4.47;;;;;;;;;;5056559;28;20035;-64
2021/05/13 09:11:55;;;;;;;9.48;4.57;;;25.80;39.30;;;;;;5071477;28;20043;-64
2021/05/13 09:14:32;;;;;;;7.82;3.65;;;34.70;26.60;;;;;;5060136;28;20043;-64
2021/05/13 09:17:01;;;;;;;11.82;4.32;;;35.20;25.70;;;;;;5063008;28;21004;-64
2021/05/13 09:19:32;;;;;;;9.15;3.63;;;35.70;24.70;;;;;;5059331;28;20420;-64
2021/05/13 09:22:07;;;;;;;7.63;3.20;;;35.80;24.20;;;;;;5065697;28;20081;-63
2021/05/13 09:24:52;;;;;;;5.38;2.03;;;;;;;;;;5053972;28;20103;-63
2021/05/13 09:27:25;;;;;;;7.75;3.13;;;36.00;23.80;;;;;;5068675;28;20438;-63
2021/05/13 09:30:21;;;;;;;4.93;2.45;;;36.60;22.30;;;;;;5059286;28;20046;-63
2021/05/13 09:32:59;;;;;;;7.25;2.50;;;36.60;22.10;;;;;;5065609;28;20460;-63
2021/05/13 09:35:33;;;;;;;6.13;2.10;;;36.70;22.20;;;;;;5055974;28;20043;-63
2021/05/13 09:38:01;;;;;;;6.90;2.40;;;36.70;22.10;;;;;;5058683;28;20040;-64
2021/05/13 09:40:50;;;;;;;9.05;2.95;;;36.80;21.90;;;;;;5058045;28;20160;-64
2021/05/13 09:43:23;;;;;;;8.32;2.40;;;;;;;;;;5061603;28;20089;-63
2021/05/13 09:45:59;;;;;;;4.57;1.92;;;36.90;22.00;;;;;;5058290;28;20413;-63
2021/05/13 09:48:34;;;;;;;5.20;1.60;;;36.90;22.20;;;;;;5047719;28;20047;-64
2021/05/13 09:51:17;;;;;;;3.50;1.60;;;37.10;21.90;;;;;;5032164;28;20077;-63
2021/05/13 09:53:45;;;;;;;13.05;1.60;;;37.30;21.20;;;;;;5037659;28;20041;-64
2021/05/13 09:56:22;;;;;;;3.55;1.30;;;;;;;;;;5040370;28;20048;-63
2021/05/13 09:58:48;;;;;;;5.10;1.45;;;;;;;;;;5035935;28;20056;-64
2021/05/13 10:01:13;;;;;;;5.47;1.60;;;37.40;21.30;;;;;;5038227;28;20029;-63
2021/05/13 10:03:42;;;;;;;4.60;2.00;;;37.30;21.70;;;;;;5056506;28;20048;-64
2021/05/13 10:06:10;;;;;;;4.10;1.75;;;36.60;21.20;;;;;;5068388;28;20699;-64
2021/05/13 10:08:39;;;;;;;3.95;1.50;;;;;;;;;;5065371;28;20032;-62
2021/05/13 10:11:06;;;;;;;3.63;1.67;;;;;;;;;;5067611;28;20028;-63
2021/05/13 10:13:33;;;;;;;9.63;2.88;;;;;;;;;;5069543;28;20631;-64
2021/05/13 10:15:59;;;;;;;5.50;2.08;;;;;;;;;;5070286;28;20159;-64
2021/05/13 10:18:28;;;;;;;7.85;2.10;;;;;;;;;;5062106;28;20221;-63
2021/05/13 10:20:58;;;;;;;5.43;2.42;;;;;;;;;;5064049;28;20036;-63
2021/05/13 10:23:27;;;;;;;6.00;2.50;;;;;;;;;;5066252;28;20040;-63
2021/05/13 10:25:53;;;;;;;6.65;2.67;;;;;;;;;;5069624;28;20059;-63
2021/05/13 10:28:27;;;;;;;10.13;3.03;;;36.20;21.90;;;;;;5069849;28;20155;-63
2021/05/13 10:31:00;;;;;;;6.15;2.50;;;;;;;;;;5055232;28;20574;-63
2021/05/13 10:33:41;;;;;;;7.97;2.95;;;33.70;23.90;;;;;;5063667;28;20251;-63
2021/05/13 10:36:08;;;;;;;6.80;2.80;;;;;;;;;;5048227;28;20098;-63
2021/05/13 10:38:55;;;;;;;5.65;2.67;;;32.00;25.80;;;;;;5034957;28;20033;-64
2021/05/13 10:41:35;;;;;;;5.93;2.67;;;30.40;27.30;;;;;;5033935;28;20041;-62
2021/05/13 10:44:15;;;;;;;8.07;3.42;;;29.70;29.00;;;;;;5039143;28;20040;-62
2021/05/13 10:46:57;;;;;;;7.75;3.15;;;29.40;29.70;;;;;;5047570;28;21393;-63
2021/05/13 10:49:24;;;;;;;7.90;3.30;;;;;;;;;;5043392;28;20122;-63
2021/05/13 10:51:55;;;;;;;9.13;3.08;;;;;;;;;;5055886;28;20070;-63
2021/05/13 10:54:30;;;;;;;7.30;3.08;;;;;;;;;;5050373;28;20300;-63
2021/05/13 10:57:17;;;;;;;9.95;3.15;;;;;;;;;;5052578;28;20051;-63
2021/05/13 11:00:02;;;;;;;8.27;2.70;;;;;;;;;;5032700;28;20296;-64
2021/05/13 11:02:47;;;;;;;7.70;2.40;;;;;;;;;;5033106;28;20054;-63
2021/05/13 11:05:39;;;;;;;4.70;2.55;;;;;;;;;;5041230;28;20333;-64
2021/05/13 11:08:05;;;;;;;8.23;2.60;;;;;;;;;;5038162;28;20041;-63
2021/05/13 11:10:52;;;;;;;5.90;2.30;;;;;;;;;;5032015;28;20069;-62
2021/05/13 11:13:18;;;;;;;5.35;3.00;;;;;;;;;;5037896;28;20048;-63
2021/05/13 11:15:53;;;;;;;8.20;2.90;;;;;;;;;;5034064;28;20093;-63
2021/05/13 11:18:25;;;;;;;5.43;2.53;;;;;;;;;;5036776;28;20035;-62
2021/05/13 11:20:55;;;;;;;9.73;2.70;;;;;;;;;;5037760;28;20580;-63
2021/05/13 11:23:44;;;;;;;5.32;3.05;;;;;;;;;;5037016;28;20060;-62
2021/05/13 11:26:15;;;;;;;7.40;2.65;;;;;;;;;;5030549;28;20127;-63
2021/05/13 11:28:50;;;;;;;5.50;2.63;;;;;;;;;;5033220;28;20049;-62
2021/05/13 11:31:21;;;;;;;7.82;3.03;;;;;;;;;;5034384;28;20037;-64
2021/05/13 11:33:48;;;;;;;8.98;3.20;;;;;;;;;;5040177;28;20045;-64
2021/05/13 11:36:15;;;;;;;7.10;3.42;;;;;;;;;;5030106;28;20134;-64
2021/05/13 11:38:41;;;;;;;9.48;3.58;;;;;;;;;;5033386;28;20032;-62
2021/05/13 11:41:07;;;;;;;5.55;3.03;;;;;;;;;;5038587;28;20423;-63
2021/05/13 11:43:34;;;;;;;5.00;3.13;;;;;;;;;;5033303;28;21159;-61
2021/05/13 11:46:02;;;;;;;6.05;3.50;;;;;;;;;;5032988;28;20121;-62
2021/05/13 11:48:35;;;;;;;6.82;3.80;;;;;;;;;;5026177;28;20063;-63
2021/05/13 11:51:03;;;;;;;7.90;3.75;;;;;;;;;;5031365;28;20715;-62
2021/05/13 11:53:29;;;;;;;6.72;3.17;;;;;;;;;;5028953;28;20076;-64
2021/05/13 11:55:55;;;;;;;5.97;3.58;;;;;;;;;;5024304;28;24052;-63
2021/05/13 11:58:35;;;;;;;8.68;4.00;;;;;;;;;;5032603;28;20044;-63
2021/05/13 12:01:19;;;;;;;5.93;3.90;;;;;;;;;;5031080;28;20048;-63
2021/05/13 12:03:46;;;;;;;7.50;3.67;;;;;;;;;;5036795;28;20095;-63
2021/05/13 12:06:12;;;;;;;9.15;4.53;;;;;;;;;;5037645;28;21217;-62
2021/05/13 12:08:38;;;;;;;11.48;4.47;;;;;;;;;;5040908;28;20037;-63
2021/05/13 12:11:20;;;;;;;8.63;3.95;;;;;;;;;;5040249;28;20430;-63
2021/05/13 12:13:47;;;;;;;8.32;4.75;;;;;;;;;;5035829;28;20079;-63
2021/05/13 12:16:13;;;;;;;8.95;4.68;;;;;;;;;;5042556;28;21062;-63
2021/05/13 12:18:40;;;;;;;9.27;6.03;;;;;;;;;;5030932;28;20265;-62
2021/05/13 12:21:11;;;;;;;11.32;5.40;;;;;;;;;;5025450;28;20052;-63
2021/05/13 12:23:39;;;;;;;8.15;5.40;;;;;;;;;;5038169;28;20054;-63
2021/05/13 12:26:10;;;;;;;8.85;5.47;;;;;;;;;;5029728;28;21351;-63
2021/05/13 12:28:36;;;;;;;8.80;5.72;;;;;;;;;;5034543;28;20043;-62
2021/05/13 12:31:02;;;;;;;9.07;6.15;;;;;;;;;;5032841;28;20129;-62
2021/05/13 12:33:34;;;;;;;10.75;6.10;;;;;;;;;;5040025;28;20489;-63
2021/05/13 12:36:00;;;;;;;9.60;5.78;;;;;;;;;;5037572;28;20067;-62
2021/05/13 12:38:26;;;;;;;10.50;6.00;;;;;;;;;;5039255;28;20495;-64
2021/05/13 12:41:09;;;;;;;8.70;5.57;;;;;;;;;;5026468;28;20203;-62
2021/05/13 12:43:35;;;;;;;8.43;5.65;;;;;;;;;;5059677;28;20036;-64
2021/05/13 12:46:01;;;;;;;13.65;5.95;;;;;;;;;;5058399;28;20036;-63
2021/05/13 12:48:28;;;;;;;9.60;5.65;;;;;;;;;;5059180;28;20089;-64
2021/05/13 12:50:57;;;;;;;9.13;6.07;;;;;;;;;;5040162;28;20044;-63
2021/05/13 12:53:23;;;;;;;10.40;6.32;;;;;;;;;;5048779;28;20044;-64
2021/05/13 12:55:50;;;;;;;11.10;6.55;;;;;;;;;;5040307;28;20383;-63
2021/05/13 12:58:17;;;;;;;11.65;6.28;;;;;;;;;;5037912;28;20043;-62
2021/05/13 13:00:46;;;;;;;10.43;5.95;;;;;;;;;;5037078;28;20131;-63
2021/05/13 13:03:16;;;;;;;13.20;6.20;;;;;;;;;;5033858;28;20101;-62
2021/05/13 13:05:43;;;;;;;10.20;5.65;;;;;;;;;;5046704;28;20076;-63
2021/05/13 13:08:09;;;;;;;8.50;5.35;;;;;;;;;;5038905;28;20386;-62
2021/05/13 13:10:44;;;;;;;7.43;5.05;;;;;;;;;;5036643;28;20252;-62
2021/05/13 13:13:16;;;;;;;9.68;5.07;;;;;;;;;;5048449;28;20444;-63
2021/05/13 13:15:48;;;;;;;9.52;5.10;;;;;;;;;;5050156;28;20476;-63
2021/05/13 13:18:16;;;;;;;10.43;4.78;;;;;;;;;;5030269;28;20048;-62
2021/05/13 13:20:45;;;;;;;9.77;4.85;;;;;;;;;;5050097;28;20043;-63
2021/05/13 13:23:17;;;;;;;8.32;4.88;;;;;;;;;;5052768;28;20043;-63